sensor_id;sensor_type;location;lat;lon;timestamp;P1;durP1;ratioP1;P2;durP2;ratioP2
57848;SDS011;68645;44.762;21.516;2023-09-19T00:00:19;9.23;;;5.68;;
57848;SDS011;68645;44.762;21.516;2023-09-19T00:02:51;10.35;;;6.10;;
57848;SDS011;68645;44.762;21.516;2023-09-19T00:05:17;10.00;;;5.85;;
57848;SDS011;68645;44.762;21.516;2023-09-19T00:07:44;15.88;;;8.68;;
57848;SDS011;68645;44.762;21.516;2023-09-19T00:10:10;17.73;;;8.20;;
57848;SDS011;68645;44.762;21.516;2023-09-19T00:12:37;15.13;;;8.40;;
57848;SDS011;68645;44.762;21.516;2023-09-19T00:15:03;15.30;;;9.63;;
57848;SDS011;68645;44.762;21.516;2023-09-19T00:17:31;16.70;;;9.32;;
57848;SDS011;68645;44.762;21.516;2023-09-19T00:19:57;14.65;;;8.65;;
57848;SDS011;68645;44.762;21.516;2023-09-19T00:22:23;9.98;;;7.18;;
57848;SDS011;68645;44.762;21.516;2023-09-19T00:24:51;14.07;;;8.38;;
57848;SDS011;68645;44.762;21.516;2023-09-19T00:27:18;9.02;;;5.97;;
57848;SDS011;68645;44.762;21.516;2023-09-19T00:29:44;14.45;;;8.23;;
57848;SDS011;68645;44.762;21.516;2023-09-19T00:32:10;12.23;;;8.00;;
57848;SDS011;68645;44.762;21.516;2023-09-19T00:34:36;13.38;;;7.03;;
57848;SDS011;68645;44.762;21.516;2023-09-19T00:37:03;14.43;;;7.93;;
57848;SDS011;68645;44.762;21.516;2023-09-19T00:39:29;9.32;;;6.28;;
57848;SDS011;68645;44.762;21.516;2023-09-19T00:41:56;16.88;;;9.20;;
57848;SDS011;68645;44.762;21.516;2023-09-19T00:44:22;19.58;;;10.68;;
57848;SDS011;68645;44.762;21.516;2023-09-19T00:46:49;21.05;;;11.05;;
57848;SDS011;68645;44.762;21.516;2023-09-19T00:49:16;10.30;;;6.82;;
57848;SDS011;68645;44.762;21.516;2023-09-19T00:51:42;8.98;;;5.95;;
57848;SDS011;68645;44.762;21.516;2023-09-19T00:54:12;11.18;;;6.32;;
57848;SDS011;68645;44.762;21.516;2023-09-19T00:59:09;9.15;;;6.32;;
57848;SDS011;68645;44.762;21.516;2023-09-19T01:01:37;8.95;;;5.88;;
57848;SDS011;68645;44.762;21.516;2023-09-19T01:04:05;12.27;;;6.75;;
57848;SDS011;68645;44.762;21.516;2023-09-19T01:06:31;12.25;;;6.07;;
57848;SDS011;68645;44.762;21.516;2023-09-19T01:08:57;10.88;;;6.57;;
57848;SDS011;68645;44.762;21.516;2023-09-19T01:16:42;12.85;;;7.43;;
57848;SDS011;68645;44.762;21.516;2023-09-19T01:19:19;14.17;;;8.50;;
57848;SDS011;68645;44.762;21.516;2023-09-19T01:27:15;12.67;;;6.93;;
57848;SDS011;68645;44.762;21.516;2023-09-19T01:29:46;19.30;;;9.32;;
57848;SDS011;68645;44.762;21.516;2023-09-19T01:32:15;11.37;;;6.43;;
57848;SDS011;68645;44.762;21.516;2023-09-19T01:37:12;10.15;;;7.55;;
57848;SDS011;68645;44.762;21.516;2023-09-19T01:39:39;14.50;;;9.20;;
57848;SDS011;68645;44.762;21.516;2023-09-19T01:42:15;13.00;;;7.35;;
57848;SDS011;68645;44.762;21.516;2023-09-19T01:47:35;12.60;;;8.65;;
57848;SDS011;68645;44.762;21.516;2023-09-19T01:52:41;18.17;;;10.15;;
57848;SDS011;68645;44.762;21.516;2023-09-19T01:55:09;14.47;;;7.63;;
57848;SDS011;68645;44.762;21.516;2023-09-19T01:57:40;17.38;;;9.45;;
57848;SDS011;68645;44.762;21.516;2023-09-19T02:00:09;17.73;;;9.68;;
57848;SDS011;68645;44.762;21.516;2023-09-19T02:02:37;13.63;;;7.70;;
57848;SDS011;68645;44.762;21.516;2023-09-19T02:05:07;16.17;;;8.55;;
57848;SDS011;68645;44.762;21.516;2023-09-19T02:07:33;11.10;;;6.78;;
57848;SDS011;68645;44.762;21.516;2023-09-19T02:10:01;13.52;;;7.57;;
57848;SDS011;68645;44.762;21.516;2023-09-19T02:12:30;15.35;;;8.35;;
57848;SDS011;68645;44.762;21.516;2023-09-19T02:14:57;15.35;;;8.85;;
57848;SDS011;68645;44.762;21.516;2023-09-19T02:17:24;16.52;;;9.70;;
57848;SDS011;68645;44.762;21.516;2023-09-19T02:19:54;15.25;;;8.60;;
57848;SDS011;68645;44.762;21.516;2023-09-19T02:22:23;17.60;;;9.80;;
57848;SDS011;68645;44.762;21.516;2023-09-19T02:24:50;19.83;;;9.73;;
57848;SDS011;68645;44.762;21.516;2023-09-19T02:27:16;16.98;;;9.18;;
57848;SDS011;68645;44.762;21.516;2023-09-19T02:29:43;16.58;;;9.95;;
57848;SDS011;68645;44.762;21.516;2023-09-19T02:32:09;22.35;;;12.02;;
57848;SDS011;68645;44.762;21.516;2023-09-19T02:34:35;14.00;;;8.18;;
57848;SDS011;68645;44.762;21.516;2023-09-19T02:37:03;18.15;;;9.63;;
57848;SDS011;68645;44.762;21.516;2023-09-19T02:39:33;19.13;;;10.45;;
57848;SDS011;68645;44.762;21.516;2023-09-19T02:42:00;24.73;;;9.52;;
57848;SDS011;68645;44.762;21.516;2023-09-19T02:44:29;18.08;;;9.07;;
57848;SDS011;68645;44.762;21.516;2023-09-19T02:46:55;15.20;;;9.15;;
57848;SDS011;68645;44.762;21.516;2023-09-19T02:49:22;15.48;;;9.55;;
57848;SDS011;68645;44.762;21.516;2023-09-19T02:51:48;17.60;;;9.98;;
57848;SDS011;68645;44.762;21.516;2023-09-19T02:54:14;13.43;;;8.38;;
57848;SDS011;68645;44.762;21.516;2023-09-19T02:56:41;11.68;;;7.72;;
57848;SDS011;68645;44.762;21.516;2023-09-19T02:59:07;11.05;;;6.75;;
57848;SDS011;68645;44.762;21.516;2023-09-19T03:01:35;12.05;;;6.88;;
57848;SDS011;68645;44.762;21.516;2023-09-19T03:04:03;14.23;;;6.70;;
57848;SDS011;68645;44.762;21.516;2023-09-19T03:06:33;15.63;;;7.20;;
57848;SDS011;68645;44.762;21.516;2023-09-19T03:08:59;11.93;;;7.28;;
57848;SDS011;68645;44.762;21.516;2023-09-19T03:11:26;14.68;;;8.25;;
57848;SDS011;68645;44.762;21.516;2023-09-19T03:13:52;10.85;;;6.72;;
57848;SDS011;68645;44.762;21.516;2023-09-19T03:16:19;15.90;;;8.75;;
57848;SDS011;68645;44.762;21.516;2023-09-19T03:18:47;17.25;;;9.43;;
57848;SDS011;68645;44.762;21.516;2023-09-19T03:21:16;15.13;;;8.30;;
57848;SDS011;68645;44.762;21.516;2023-09-19T03:23:44;22.15;;;10.27;;
57848;SDS011;68645;44.762;21.516;2023-09-19T03:26:13;18.17;;;10.23;;
57848;SDS011;68645;44.762;21.516;2023-09-19T03:28:41;17.73;;;8.17;;
57848;SDS011;68645;44.762;21.516;2023-09-19T03:31:08;16.67;;;9.18;;
57848;SDS011;68645;44.762;21.516;2023-09-19T03:33:34;18.02;;;8.90;;
57848;SDS011;68645;44.762;21.516;2023-09-19T03:36:01;14.10;;;9.05;;
57848;SDS011;68645;44.762;21.516;2023-09-19T03:38:30;17.38;;;9.15;;
57848;SDS011;68645;44.762;21.516;2023-09-19T03:40:56;17.58;;;9.05;;
57848;SDS011;68645;44.762;21.516;2023-09-19T03:43:22;15.13;;;9.32;;
57848;SDS011;68645;44.762;21.516;2023-09-19T03:45:49;18.77;;;8.70;;
57848;SDS011;68645;44.762;21.516;2023-09-19T03:48:16;16.33;;;8.65;;
57848;SDS011;68645;44.762;21.516;2023-09-19T03:50:42;14.52;;;8.75;;
57848;SDS011;68645;44.762;21.516;2023-09-19T03:53:09;13.48;;;7.75;;
57848;SDS011;68645;44.762;21.516;2023-09-19T03:55:35;14.57;;;8.95;;
57848;SDS011;68645;44.762;21.516;2023-09-19T03:58:01;14.57;;;8.43;;
57848;SDS011;68645;44.762;21.516;2023-09-19T04:00:28;11.68;;;7.10;;
57848;SDS011;68645;44.762;21.516;2023-09-19T04:02:55;17.52;;;9.20;;
57848;SDS011;68645;44.762;21.516;2023-09-19T04:05:22;16.67;;;9.48;;
57848;SDS011;68645;44.762;21.516;2023-09-19T04:07:48;15.85;;;9.23;;
57848;SDS011;68645;44.762;21.516;2023-09-19T04:10:15;17.60;;;9.82;;
57848;SDS011;68645;44.762;21.516;2023-09-19T04:12:51;16.25;;;9.60;;
57848;SDS011;68645;44.762;21.516;2023-09-19T04:15:18;13.10;;;7.95;;
57848;SDS011;68645;44.762;21.516;2023-09-19T04:17:44;17.20;;;8.52;;
57848;SDS011;68645;44.762;21.516;2023-09-19T04:20:10;15.10;;;8.35;;
57848;SDS011;68645;44.762;21.516;2023-09-19T04:22:40;15.57;;;8.95;;
57848;SDS011;68645;44.762;21.516;2023-09-19T04:25:06;18.60;;;9.35;;
57848;SDS011;68645;44.762;21.516;2023-09-19T04:27:32;15.35;;;8.48;;
57848;SDS011;68645;44.762;21.516;2023-09-19T04:29:59;17.48;;;8.10;;
57848;SDS011;68645;44.762;21.516;2023-09-19T04:32:29;15.43;;;8.33;;
57848;SDS011;68645;44.762;21.516;2023-09-19T04:34:57;13.38;;;7.35;;
57848;SDS011;68645;44.762;21.516;2023-09-19T04:37:25;12.75;;;7.20;;
57848;SDS011;68645;44.762;21.516;2023-09-19T04:39:51;11.07;;;6.63;;
57848;SDS011;68645;44.762;21.516;2023-09-19T04:42:18;8.23;;;5.53;;
57848;SDS011;68645;44.762;21.516;2023-09-19T04:44:44;8.20;;;5.68;;
57848;SDS011;68645;44.762;21.516;2023-09-19T04:47:11;13.25;;;6.30;;
57848;SDS011;68645;44.762;21.516;2023-09-19T04:49:37;9.38;;;6.35;;
57848;SDS011;68645;44.762;21.516;2023-09-19T04:52:05;14.05;;;7.60;;
57848;SDS011;68645;44.762;21.516;2023-09-19T04:54:32;11.85;;;8.30;;
57848;SDS011;68645;44.762;21.516;2023-09-19T04:56:59;15.13;;;8.82;;
57848;SDS011;68645;44.762;21.516;2023-09-19T04:59:26;17.58;;;9.85;;
57848;SDS011;68645;44.762;21.516;2023-09-19T05:01:53;15.95;;;9.20;;
57848;SDS011;68645;44.762;21.516;2023-09-19T05:04:21;13.05;;;6.95;;
57848;SDS011;68645;44.762;21.516;2023-09-19T05:06:48;14.40;;;7.70;;
57848;SDS011;68645;44.762;21.516;2023-09-19T05:09:14;19.75;;;9.50;;
57848;SDS011;68645;44.762;21.516;2023-09-19T05:11:41;19.98;;;9.45;;
57848;SDS011;68645;44.762;21.516;2023-09-19T05:14:08;17.52;;;9.43;;
57848;SDS011;68645;44.762;21.516;2023-09-19T05:16:34;12.20;;;7.45;;
57848;SDS011;68645;44.762;21.516;2023-09-19T05:19:01;15.52;;;8.43;;
57848;SDS011;68645;44.762;21.516;2023-09-19T05:21:29;20.42;;;10.07;;
57848;SDS011;68645;44.762;21.516;2023-09-19T05:23:56;18.50;;;10.18;;
57848;SDS011;68645;44.762;21.516;2023-09-19T05:26:22;23.05;;;10.25;;
57848;SDS011;68645;44.762;21.516;2023-09-19T05:28:49;13.13;;;7.73;;
57848;SDS011;68645;44.762;21.516;2023-09-19T05:31:15;13.75;;;7.57;;
57848;SDS011;68645;44.762;21.516;2023-09-19T05:33:42;19.70;;;9.07;;
57848;SDS011;68645;44.762;21.516;2023-09-19T05:36:08;17.50;;;8.82;;
57848;SDS011;68645;44.762;21.516;2023-09-19T05:38:37;13.52;;;7.10;;
57848;SDS011;68645;44.762;21.516;2023-09-19T05:41:06;19.27;;;8.73;;
57848;SDS011;68645;44.762;21.516;2023-09-19T05:43:33;13.73;;;8.52;;
57848;SDS011;68645;44.762;21.516;2023-09-19T05:46:02;12.68;;;8.10;;
57848;SDS011;68645;44.762;21.516;2023-09-19T05:48:28;12.10;;;6.60;;
57848;SDS011;68645;44.762;21.516;2023-09-19T05:50:54;13.55;;;8.57;;
57848;SDS011;68645;44.762;21.516;2023-09-19T05:53:21;12.18;;;6.93;;
57848;SDS011;68645;44.762;21.516;2023-09-19T05:55:48;12.82;;;7.32;;
57848;SDS011;68645;44.762;21.516;2023-09-19T05:58:14;17.17;;;7.88;;
57848;SDS011;68645;44.762;21.516;2023-09-19T06:00:42;9.70;;;6.00;;
57848;SDS011;68645;44.762;21.516;2023-09-19T06:03:09;11.23;;;6.15;;
57848;SDS011;68645;44.762;21.516;2023-09-19T06:05:39;8.65;;;6.05;;
57848;SDS011;68645;44.762;21.516;2023-09-19T06:08:06;10.32;;;5.80;;
57848;SDS011;68645;44.762;21.516;2023-09-19T06:10:35;12.65;;;6.82;;
57848;SDS011;68645;44.762;21.516;2023-09-19T06:13:04;10.20;;;6.93;;
57848;SDS011;68645;44.762;21.516;2023-09-19T06:15:31;16.88;;;9.45;;
57848;SDS011;68645;44.762;21.516;2023-09-19T06:17:58;7.88;;;5.45;;
57848;SDS011;68645;44.762;21.516;2023-09-19T06:20:25;11.57;;;10.23;;
57848;SDS011;68645;44.762;21.516;2023-09-19T06:22:51;13.00;;;7.25;;
57848;SDS011;68645;44.762;21.516;2023-09-19T06:25:18;7.82;;;5.70;;
57848;SDS011;68645;44.762;21.516;2023-09-19T06:27:45;10.30;;;6.22;;
57848;SDS011;68645;44.762;21.516;2023-09-19T06:30:11;11.93;;;7.18;;
57848;SDS011;68645;44.762;21.516;2023-09-19T06:32:39;13.13;;;8.00;;
57848;SDS011;68645;44.762;21.516;2023-09-19T06:35:05;14.18;;;7.57;;
57848;SDS011;68645;44.762;21.516;2023-09-19T06:40:04;13.85;;;8.43;;
57848;SDS011;68645;44.762;21.516;2023-09-19T06:42:31;12.05;;;7.90;;
57848;SDS011;68645;44.762;21.516;2023-09-19T06:44:57;17.85;;;8.90;;
57848;SDS011;68645;44.762;21.516;2023-09-19T06:47:24;13.82;;;8.00;;
57848;SDS011;68645;44.762;21.516;2023-09-19T06:49:51;14.48;;;8.13;;
57848;SDS011;68645;44.762;21.516;2023-09-19T06:52:17;23.48;;;9.88;;
57848;SDS011;68645;44.762;21.516;2023-09-19T06:54:44;12.73;;;9.38;;
57848;SDS011;68645;44.762;21.516;2023-09-19T06:57:10;15.25;;;13.30;;
57848;SDS011;68645;44.762;21.516;2023-09-19T06:59:37;23.10;;;20.35;;
57848;SDS011;68645;44.762;21.516;2023-09-19T07:02:03;10.90;;;6.90;;
57848;SDS011;68645;44.762;21.516;2023-09-19T07:04:31;10.32;;;6.53;;
57848;SDS011;68645;44.762;21.516;2023-09-19T07:06:58;10.80;;;5.97;;
57848;SDS011;68645;44.762;21.516;2023-09-19T07:09:24;12.35;;;6.93;;
57848;SDS011;68645;44.762;21.516;2023-09-19T07:11:52;8.70;;;5.40;;
57848;SDS011;68645;44.762;21.516;2023-09-19T07:14:19;8.40;;;5.80;;
57848;SDS011;68645;44.762;21.516;2023-09-19T07:16:45;9.38;;;6.32;;
57848;SDS011;68645;44.762;21.516;2023-09-19T07:19:12;10.68;;;6.20;;
57848;SDS011;68645;44.762;21.516;2023-09-19T07:21:40;9.65;;;5.78;;
57848;SDS011;68645;44.762;21.516;2023-09-19T07:24:07;10.30;;;5.97;;
57848;SDS011;68645;44.762;21.516;2023-09-19T07:26:34;10.98;;;6.60;;
57848;SDS011;68645;44.762;21.516;2023-09-19T07:29:00;10.00;;;6.43;;
57848;SDS011;68645;44.762;21.516;2023-09-19T07:31:29;10.60;;;6.78;;
57848;SDS011;68645;44.762;21.516;2023-09-19T07:33:56;10.20;;;6.15;;
57848;SDS011;68645;44.762;21.516;2023-09-19T07:36:22;9.02;;;5.30;;
57848;SDS011;68645;44.762;21.516;2023-09-19T07:38:49;9.15;;;5.22;;
57848;SDS011;68645;44.762;21.516;2023-09-19T07:41:15;6.97;;;5.32;;
57848;SDS011;68645;44.762;21.516;2023-09-19T07:43:42;7.15;;;5.00;;
57848;SDS011;68645;44.762;21.516;2023-09-19T07:46:09;8.77;;;5.00;;
57848;SDS011;68645;44.762;21.516;2023-09-19T07:48:36;7.78;;;5.72;;
57848;SDS011;68645;44.762;21.516;2023-09-19T07:51:06;7.80;;;5.53;;
57848;SDS011;68645;44.762;21.516;2023-09-19T07:53:34;10.57;;;5.75;;
57848;SDS011;68645;44.762;21.516;2023-09-19T07:56:07;10.45;;;5.82;;
57848;SDS011;68645;44.762;21.516;2023-09-19T07:58:34;10.07;;;6.15;;
57848;SDS011;68645;44.762;21.516;2023-09-19T08:01:04;7.47;;;5.75;;
57848;SDS011;68645;44.762;21.516;2023-09-19T08:03:32;8.65;;;5.68;;
57848;SDS011;68645;44.762;21.516;2023-09-19T08:05:58;13.85;;;7.82;;
57848;SDS011;68645;44.762;21.516;2023-09-19T08:08:25;11.77;;;6.65;;
57848;SDS011;68645;44.762;21.516;2023-09-19T08:10:55;13.10;;;6.72;;
57848;SDS011;68645;44.762;21.516;2023-09-19T08:13:24;12.82;;;7.05;;
57848;SDS011;68645;44.762;21.516;2023-09-19T08:15:50;9.80;;;5.07;;
57848;SDS011;68645;44.762;21.516;2023-09-19T08:18:18;9.15;;;6.50;;
57848;SDS011;68645;44.762;21.516;2023-09-19T08:20:51;8.25;;;5.15;;
57848;SDS011;68645;44.762;21.516;2023-09-19T08:23:17;12.57;;;5.50;;
57848;SDS011;68645;44.762;21.516;2023-09-19T08:25:45;10.32;;;5.05;;
57848;SDS011;68645;44.762;21.516;2023-09-19T08:28:12;8.45;;;4.93;;
57848;SDS011;68645;44.762;21.516;2023-09-19T08:30:43;9.02;;;4.88;;
57848;SDS011;68645;44.762;21.516;2023-09-19T08:33:11;8.15;;;5.13;;
57848;SDS011;68645;44.762;21.516;2023-09-19T08:35:37;10.38;;;4.80;;
57848;SDS011;68645;44.762;21.516;2023-09-19T08:38:05;6.13;;;4.72;;
57848;SDS011;68645;44.762;21.516;2023-09-19T08:40:32;9.52;;;5.75;;
57848;SDS011;68645;44.762;21.516;2023-09-19T08:43:01;9.27;;;5.78;;
57848;SDS011;68645;44.762;21.516;2023-09-19T08:45:28;8.73;;;5.88;;
57848;SDS011;68645;44.762;21.516;2023-09-19T08:48:03;19.73;;;7.45;;
57848;SDS011;68645;44.762;21.516;2023-09-19T08:50:33;8.75;;;5.70;;
57848;SDS011;68645;44.762;21.516;2023-09-19T08:53:06;8.90;;;4.93;;
57848;SDS011;68645;44.762;21.516;2023-09-19T08:55:37;9.13;;;5.15;;
57848;SDS011;68645;44.762;21.516;2023-09-19T08:58:06;9.75;;;5.22;;
57848;SDS011;68645;44.762;21.516;2023-09-19T09:00:36;6.75;;;5.40;;
57848;SDS011;68645;44.762;21.516;2023-09-19T09:03:02;8.50;;;5.75;;
57848;SDS011;68645;44.762;21.516;2023-09-19T09:05:29;9.23;;;5.95;;
57848;SDS011;68645;44.762;21.516;2023-09-19T09:07:57;11.25;;;5.55;;
57848;SDS011;68645;44.762;21.516;2023-09-19T09:10:25;13.82;;;8.10;;
57848;SDS011;68645;44.762;21.516;2023-09-19T09:12:52;17.75;;;11.23;;
57848;SDS011;68645;44.762;21.516;2023-09-19T09:15:20;15.63;;;10.50;;
57848;SDS011;68645;44.762;21.516;2023-09-19T09:17:50;16.35;;;11.68;;
57848;SDS011;68645;44.762;21.516;2023-09-19T09:20:18;14.97;;;9.93;;
57848;SDS011;68645;44.762;21.516;2023-09-19T09:22:51;13.93;;;8.32;;
57848;SDS011;68645;44.762;21.516;2023-09-19T09:25:18;12.68;;;7.05;;
57848;SDS011;68645;44.762;21.516;2023-09-19T09:28:09;8.65;;;5.43;;
57848;SDS011;68645;44.762;21.516;2023-09-19T09:30:36;8.68;;;6.43;;
57848;SDS011;68645;44.762;21.516;2023-09-19T09:33:12;6.22;;;5.28;;
57848;SDS011;68645;44.762;21.516;2023-09-19T09:35:54;13.10;;;6.28;;
57848;SDS011;68645;44.762;21.516;2023-09-19T09:38:46;9.55;;;5.03;;
57848;SDS011;68645;44.762;21.516;2023-09-19T09:41:13;11.18;;;7.65;;
57848;SDS011;68645;44.762;21.516;2023-09-19T09:43:53;9.63;;;5.97;;
57848;SDS011;68645;44.762;21.516;2023-09-19T09:46:20;9.05;;;4.78;;
57848;SDS011;68645;44.762;21.516;2023-09-19T09:49:00;10.82;;;5.85;;
57848;SDS011;68645;44.762;21.516;2023-09-19T09:51:49;8.13;;;5.20;;
57848;SDS011;68645;44.762;21.516;2023-09-19T09:54:25;9.52;;;6.30;;
57848;SDS011;68645;44.762;21.516;2023-09-19T09:57:04;9.18;;;4.85;;
57848;SDS011;68645;44.762;21.516;2023-09-19T10:02:34;8.38;;;4.93;;
57848;SDS011;68645;44.762;21.516;2023-09-19T10:05:12;7.68;;;5.13;;
57848;SDS011;68645;44.762;21.516;2023-09-19T10:07:59;13.20;;;7.07;;
57848;SDS011;68645;44.762;21.516;2023-09-19T10:10:38;8.07;;;5.30;;
57848;SDS011;68645;44.762;21.516;2023-09-19T10:18:01;9.75;;;6.60;;
57848;SDS011;68645;44.762;21.516;2023-09-19T10:20:30;17.45;;;10.35;;
57848;SDS011;68645;44.762;21.516;2023-09-19T10:23:00;18.20;;;8.95;;
57848;SDS011;68645;44.762;21.516;2023-09-19T10:25:27;13.00;;;8.68;;
57848;SDS011;68645;44.762;21.516;2023-09-19T10:27:54;14.43;;;7.93;;
57848;SDS011;68645;44.762;21.516;2023-09-19T10:30:22;9.25;;;6.43;;
57848;SDS011;68645;44.762;21.516;2023-09-19T10:32:56;8.90;;;5.55;;
57848;SDS011;68645;44.762;21.516;2023-09-19T10:35:23;16.00;;;9.27;;
57848;SDS011;68645;44.762;21.516;2023-09-19T10:37:50;18.17;;;9.38;;
57848;SDS011;68645;44.762;21.516;2023-09-19T10:40:17;15.20;;;7.63;;
57848;SDS011;68645;44.762;21.516;2023-09-19T10:42:45;15.00;;;9.20;;
57848;SDS011;68645;44.762;21.516;2023-09-19T10:45:12;13.60;;;8.30;;
57848;SDS011;68645;44.762;21.516;2023-09-19T10:47:39;11.35;;;7.05;;
57848;SDS011;68645;44.762;21.516;2023-09-19T10:50:06;11.32;;;7.25;;
57848;SDS011;68645;44.762;21.516;2023-09-19T10:52:39;10.55;;;7.28;;
57848;SDS011;68645;44.762;21.516;2023-09-19T10:55:06;8.48;;;6.10;;
57848;SDS011;68645;44.762;21.516;2023-09-19T10:57:34;17.58;;;8.48;;
57848;SDS011;68645;44.762;21.516;2023-09-19T11:03:05;21.75;;;10.90;;
57848;SDS011;68645;44.762;21.516;2023-09-19T11:05:32;24.88;;;13.93;;
57848;SDS011;68645;44.762;21.516;2023-09-19T11:07:59;29.73;;;15.05;;
57848;SDS011;68645;44.762;21.516;2023-09-19T11:10:46;28.35;;;15.15;;
57848;SDS011;68645;44.762;21.516;2023-09-19T11:24:30;25.02;;;12.68;;
57848;SDS011;68645;44.762;21.516;2023-09-19T11:26:49;15.85;;;9.05;;
57848;SDS011;68645;44.762;21.516;2023-09-19T11:29:32;9.95;;;6.93;;
57848;SDS011;68645;44.762;21.516;2023-09-19T11:31:58;14.10;;;5.97;;
57848;SDS011;68645;44.762;21.516;2023-09-19T11:34:42;8.48;;;5.95;;
57848;SDS011;68645;44.762;21.516;2023-09-19T11:39:37;9.77;;;6.15;;
57848;SDS011;68645;44.762;21.516;2023-09-19T11:44:48;12.93;;;5.25;;
57848;SDS011;68645;44.762;21.516;2023-09-19T11:47:17;9.55;;;5.75;;
57848;SDS011;68645;44.762;21.516;2023-09-19T11:49:44;7.68;;;5.10;;
57848;SDS011;68645;44.762;21.516;2023-09-19T11:52:10;6.45;;;5.28;;
57848;SDS011;68645;44.762;21.516;2023-09-19T11:54:39;8.52;;;5.38;;
57848;SDS011;68645;44.762;21.516;2023-09-19T11:57:06;8.98;;;5.70;;
57848;SDS011;68645;44.762;21.516;2023-09-19T11:59:34;21.98;;;13.80;;
57848;SDS011;68645;44.762;21.516;2023-09-19T12:02:04;9.93;;;6.22;;
57848;SDS011;68645;44.762;21.516;2023-09-19T12:04:38;9.43;;;5.60;;
57848;SDS011;68645;44.762;21.516;2023-09-19T12:07:13;7.15;;;5.28;;
57848;SDS011;68645;44.762;21.516;2023-09-19T12:09:40;9.50;;;5.10;;
57848;SDS011;68645;44.762;21.516;2023-09-19T12:12:22;7.50;;;5.03;;
57848;SDS011;68645;44.762;21.516;2023-09-19T12:14:49;8.90;;;5.20;;
57848;SDS011;68645;44.762;21.516;2023-09-19T12:17:15;6.65;;;5.30;;
57848;SDS011;68645;44.762;21.516;2023-09-19T12:19:49;11.68;;;7.53;;
57848;SDS011;68645;44.762;21.516;2023-09-19T12:22:17;11.45;;;6.47;;
57848;SDS011;68645;44.762;21.516;2023-09-19T12:24:45;9.90;;;5.50;;
57848;SDS011;68645;44.762;21.516;2023-09-19T12:27:12;7.38;;;5.40;;
57848;SDS011;68645;44.762;21.516;2023-09-19T12:29:45;13.35;;;7.38;;
57848;SDS011;68645;44.762;21.516;2023-09-19T12:32:11;8.95;;;5.88;;
57848;SDS011;68645;44.762;21.516;2023-09-19T12:34:39;10.68;;;5.65;;
57848;SDS011;68645;44.762;21.516;2023-09-19T12:37:14;9.20;;;6.40;;
57848;SDS011;68645;44.762;21.516;2023-09-19T12:39:46;14.80;;;7.55;;
57848;SDS011;68645;44.762;21.516;2023-09-19T12:42:17;12.32;;;6.72;;
57848;SDS011;68645;44.762;21.516;2023-09-19T12:44:47;10.73;;;6.22;;
57848;SDS011;68645;44.762;21.516;2023-09-19T12:47:15;7.55;;;5.28;;
57848;SDS011;68645;44.762;21.516;2023-09-19T12:52:33;7.18;;;5.35;;
57848;SDS011;68645;44.762;21.516;2023-09-19T12:55:00;7.97;;;5.53;;
57848;SDS011;68645;44.762;21.516;2023-09-19T12:57:30;7.93;;;5.10;;
57848;SDS011;68645;44.762;21.516;2023-09-19T13:00:00;8.65;;;5.90;;
57848;SDS011;68645;44.762;21.516;2023-09-19T13:02:26;13.43;;;7.20;;
57848;SDS011;68645;44.762;21.516;2023-09-19T13:04:53;13.07;;;6.30;;
57848;SDS011;68645;44.762;21.516;2023-09-19T13:07:40;6.65;;;4.40;;
57848;SDS011;68645;44.762;21.516;2023-09-19T13:10:10;12.07;;;6.07;;
57848;SDS011;68645;44.762;21.516;2023-09-19T13:12:40;11.13;;;5.75;;
57848;SDS011;68645;44.762;21.516;2023-09-19T13:15:12;8.55;;;5.75;;
57848;SDS011;68645;44.762;21.516;2023-09-19T13:17:47;14.02;;;7.88;;
57848;SDS011;68645;44.762;21.516;2023-09-19T13:22:57;12.30;;;7.03;;
57848;SDS011;68645;44.762;21.516;2023-09-19T13:25:25;11.55;;;7.22;;
57848;SDS011;68645;44.762;21.516;2023-09-19T13:27:55;11.18;;;6.38;;
57848;SDS011;68645;44.762;21.516;2023-09-19T13:30:25;12.13;;;6.68;;
57848;SDS011;68645;44.762;21.516;2023-09-19T13:33:08;12.55;;;6.88;;
57848;SDS011;68645;44.762;21.516;2023-09-19T13:38:03;25.10;;;12.32;;
57848;SDS011;68645;44.762;21.516;2023-09-19T13:40:31;27.15;;;13.32;;
57848;SDS011;68645;44.762;21.516;2023-09-19T13:43:00;23.58;;;12.88;;
57848;SDS011;68645;44.762;21.516;2023-09-19T13:45:26;22.52;;;11.57;;
57848;SDS011;68645;44.762;21.516;2023-09-19T13:47:56;13.20;;;7.82;;
57848;SDS011;68645;44.762;21.516;2023-09-19T13:50:23;14.27;;;6.88;;
57848;SDS011;68645;44.762;21.516;2023-09-19T13:52:53;11.57;;;7.63;;
57848;SDS011;68645;44.762;21.516;2023-09-19T13:55:19;14.55;;;8.02;;
57848;SDS011;68645;44.762;21.516;2023-09-19T13:57:48;10.90;;;6.60;;
57848;SDS011;68645;44.762;21.516;2023-09-19T14:00:21;15.23;;;8.18;;
57848;SDS011;68645;44.762;21.516;2023-09-19T14:02:48;28.10;;;14.13;;
57848;SDS011;68645;44.762;21.516;2023-09-19T14:05:14;29.65;;;14.60;;
57848;SDS011;68645;44.762;21.516;2023-09-19T14:07:42;30.55;;;15.55;;
57848;SDS011;68645;44.762;21.516;2023-09-19T14:10:09;32.67;;;18.55;;
57848;SDS011;68645;44.762;21.516;2023-09-19T14:12:36;33.88;;;18.27;;
57848;SDS011;68645;44.762;21.516;2023-09-19T14:15:03;42.60;;;18.85;;
57848;SDS011;68645;44.762;21.516;2023-09-19T14:17:30;39.45;;;18.85;;
57848;SDS011;68645;44.762;21.516;2023-09-19T14:19:56;36.35;;;17.30;;
57848;SDS011;68645;44.762;21.516;2023-09-19T14:22:22;29.95;;;15.90;;
57848;SDS011;68645;44.762;21.516;2023-09-19T14:24:48;22.65;;;11.75;;
57848;SDS011;68645;44.762;21.516;2023-09-19T14:27:14;19.05;;;9.63;;
57848;SDS011;68645;44.762;21.516;2023-09-19T14:29:41;28.58;;;13.98;;
57848;SDS011;68645;44.762;21.516;2023-09-19T14:32:07;32.25;;;15.55;;
57848;SDS011;68645;44.762;21.516;2023-09-19T14:34:33;30.95;;;16.67;;
57848;SDS011;68645;44.762;21.516;2023-09-19T14:37:01;28.80;;;14.05;;
57848;SDS011;68645;44.762;21.516;2023-09-19T14:39:29;22.23;;;11.52;;
57848;SDS011;68645;44.762;21.516;2023-09-19T14:41:55;17.30;;;10.23;;
57848;SDS011;68645;44.762;21.516;2023-09-19T14:44:21;22.50;;;9.70;;
57848;SDS011;68645;44.762;21.516;2023-09-19T14:46:47;13.38;;;8.80;;
57848;SDS011;68645;44.762;21.516;2023-09-19T14:49:14;39.38;;;18.70;;
57848;SDS011;68645;44.762;21.516;2023-09-19T14:51:41;32.65;;;15.77;;
57848;SDS011;68645;44.762;21.516;2023-09-19T14:54:09;30.67;;;14.80;;
57848;SDS011;68645;44.762;21.516;2023-09-19T14:56:35;30.58;;;17.27;;
57848;SDS011;68645;44.762;21.516;2023-09-19T14:59:01;29.42;;;16.13;;
57848;SDS011;68645;44.762;21.516;2023-09-19T15:01:28;34.53;;;15.80;;
57848;SDS011;68645;44.762;21.516;2023-09-19T15:03:55;28.60;;;13.50;;
57848;SDS011;68645;44.762;21.516;2023-09-19T15:06:21;25.92;;;14.82;;
57848;SDS011;68645;44.762;21.516;2023-09-19T15:08:48;24.05;;;12.68;;
57848;SDS011;68645;44.762;21.516;2023-09-19T15:11:16;12.25;;;7.95;;
57848;SDS011;68645;44.762;21.516;2023-09-19T15:13:43;12.68;;;8.73;;
57848;SDS011;68645;44.762;21.516;2023-09-19T15:16:10;15.63;;;8.32;;
57848;SDS011;68645;44.762;21.516;2023-09-19T15:18:37;13.27;;;8.82;;
57848;SDS011;68645;44.762;21.516;2023-09-19T15:21:04;10.80;;;7.22;;
57848;SDS011;68645;44.762;21.516;2023-09-19T15:23:31;13.73;;;8.60;;
57848;SDS011;68645;44.762;21.516;2023-09-19T15:26:05;13.63;;;8.18;;
57848;SDS011;68645;44.762;21.516;2023-09-19T15:28:32;14.55;;;9.13;;